Time;durP1;ratioP1;P1;durP2;ratioP2;P2;SDS_P1;SDS_P2;PMS_P1;PMS_P2;Temp;Humidity;BMP_temperature;BMP_pressure;BME280_temperature;BME280_humidity;BME280_pressure;Samples;Min_cycle;Max_cycle;Signal;HPM_P1;HPM_P2
2022/09/13 00:00:18;;;;;;;2.70;2.45;;;18.40;88.30;;;;;;4948874;28;20403;-79
2022/09/13 00:02:44;;;;;;;2.97;2.63;;;18.40;87.50;;;;;;4944783;28;20089;-79
2022/09/13 00:05:09;;;;;;;2.97;2.38;;;18.50;87.10;;;;;;4926783;28;20031;-79
2022/09/13 00:07:35;;;;;;;4.78;2.60;;;18.40;86.70;;;;;;4964859;28;20027;-79
2022/09/13 00:10:00;;;;;;;5.97;3.10;;;18.40;87.40;;;;;;4936212;28;20053;-80
2022/09/13 00:12:26;;;;;;;2.67;2.45;;;18.40;87.40;;;;;;4961606;28;20752;-79
2022/09/13 00:14:51;;;;;;;3.60;2.75;;;18.40;88.10;;;;;;4936754;28;20031;-79
2022/09/13 00:17:17;;;;;;;5.43;2.35;;;18.40;88.70;;;;;;4947925;28;20048;-79
2022/09/13 00:19:42;;;;;;;4.90;3.05;;;18.30;88.20;;;;;;4969417;28;20427;-79
2022/09/13 00:22:08;;;;;;;4.80;2.67;;;18.20;88.20;;;;;;4931884;28;20545;-79
2022/09/13 00:24:33;;;;;;;6.03;2.45;;;18.20;88.60;;;;;;4948317;28;20146;-79
2022/09/13 00:26:59;;;;;;;2.75;2.22;;;18.40;87.60;;;;;;4937324;28;20046;-79
2022/09/13 00:29:26;;;;;;;3.80;2.30;;;18.40;88.20;;;;;;4934208;28;20117;-79
2022/09/13 00:31:51;;;;;;;3.45;2.67;;;18.30;88.50;;;;;;4959802;28;20113;-79
2022/09/13 00:34:17;;;;;;;3.17;2.25;;;18.40;89.20;;;;;;4945655;28;20590;-79
2022/09/13 00:36:44;;;;;;;2.97;2.53;;;18.40;88.50;;;;;;4950575;28;20035;-79
2022/09/13 00:39:10;;;;;;;4.18;2.65;;;18.30;89.10;;;;;;4961232;28;20065;-79
2022/09/13 00:41:35;;;;;;;3.88;2.78;;;18.30;89.00;;;;;;4953734;28;20077;-79
2022/09/13 00:44:01;;;;;;;3.20;2.80;;;18.30;89.80;;;;;;4955473;28;20569;-79
2022/09/13 00:46:36;;;;;;;4.45;2.72;;;18.30;88.70;;;;;;4943144;28;20035;-79
2022/09/13 00:49:16;;;;;;;2.78;2.47;;;18.40;88.50;;;;;;4962022;28;20039;-79
2022/09/13 00:51:44;;;;;;;3.08;2.30;;;18.40;88.50;;;;;;4949557;28;20156;-79
2022/09/13 00:54:10;;;;;;;2.65;2.28;;;18.50;88.50;;;;;;4939405;28;20579;-80
2022/09/13 00:56:40;;;;;;;3.35;2.45;;;18.50;88.30;;;;;;4963303;28;20038;-79
2022/09/13 00:59:14;;;;;;;3.63;2.40;;;18.50;88.80;;;;;;4940548;28;20494;-79
2022/09/13 01:01:48;;;;;;;6.18;2.40;;;18.50;88.50;;;;;;4939744;28;20039;-79
2022/09/13 01:04:14;;;;;;;2.28;1.80;;;18.50;89.10;;;;;;4968582;28;20113;-78
2022/09/13 01:06:40;;;;;;;5.32;2.58;;;18.60;88.40;;;;;;4949876;28;20043;-80
2022/09/13 01:09:05;;;;;;;2.75;2.42;;;18.60;88.80;;;;;;4946843;28;20565;-79
2022/09/13 01:11:46;;;;;;;4.38;2.80;;;18.60;88.80;;;;;;4951040;28;20572;-79
2022/09/13 01:14:11;;;;;;;3.35;2.10;;;18.50;88.80;;;;;;4950104;28;20069;-79
2022/09/13 01:16:37;;;;;;;3.50;2.63;;;18.50;89.00;;;;;;4940787;28;20490;-79
2022/09/13 01:19:02;;;;;;;2.83;2.47;;;18.50;88.80;;;;;;4926804;28;20034;-79
2022/09/13 01:21:50;;;;;;;2.28;2.13;;;18.50;89.00;;;;;;4949549;28;20148;-78
2022/09/13 01:24:34;;;;;;;3.10;2.30;;;18.50;89.30;;;;;;4968328;28;20050;-79
2022/09/13 01:27:17;;;;;;;2.53;2.30;;;18.50;89.00;;;;;;4980503;28;20030;-79
2022/09/13 01:30:04;;;;;;;3.25;2.00;;;18.50;89.00;;;;;;4978797;28;20039;-79
2022/09/13 01:32:42;;;;;;;;;;;18.50;89.30;;;;;;4971450;28;20516;-80
2022/09/13 01:35:07;;;;;;;3.20;2.30;;;18.50;89.30;;;;;;4984798;28;20297;-79
2022/09/13 01:38:04;;;;;;;2.30;2.10;;;18.50;89.20;;;;;;4976779;28;20037;-79
2022/09/13 01:40:42;;;;;;;4.90;2.53;;;18.50;89.10;;;;;;4966441;28;20130;-80
2022/09/13 01:43:44;;;;;;;4.50;2.08;;;18.50;89.20;;;;;;4964164;28;20493;-79
2022/09/13 01:46:12;;;;;;;3.67;2.30;;;18.40;89.10;;;;;;4969797;28;20662;-79
2022/09/13 01:48:56;;;;;;;2.67;1.92;;;18.50;89.40;;;;;;4969090;28;20220;-79
2022/09/13 01:51:41;;;;;;;2.17;1.98;;;18.40;89.50;;;;;;4939034;28;20035;-79
2022/09/13 01:54:28;;;;;;;3.90;2.28;;;18.40;89.40;;;;;;4949215;28;20589;-80
2022/09/13 01:56:55;;;;;;;4.45;2.08;;;18.50;89.80;;;;;;4977507;28;20034;-79
2022/09/13 01:59:42;;;;;;;5.70;2.05;;;18.40;89.70;;;;;;4977973;28;20502;-79
2022/09/13 02:02:15;;;;;;;3.67;2.22;;;18.40;89.60;;;;;;4983467;28;20031;-79
2022/09/13 02:04:43;;;;;;;2.95;2.10;;;18.50;89.60;;;;;;4966722;28;20045;-79
2022/09/13 02:07:15;;;;;;;3.50;2.28;;;18.50;89.60;;;;;;4943944;28;20406;-79
2022/09/13 02:09:43;;;;;;;2.30;1.67;;;18.50;89.80;;;;;;4937140;28;20486;-79
2022/09/13 02:12:19;;;;;;;2.85;1.98;;;18.50;89.80;;;;;;4962677;28;20038;-79
2022/09/13 02:15:03;;;;;;;4.93;2.72;;;18.50;90.10;;;;;;4954721;28;20114;-79
2022/09/13 02:17:31;;;;;;;3.45;2.13;;;18.50;89.80;;;;;;4954394;28;20502;-79
2022/09/13 02:20:01;;;;;;;6.95;2.60;;;18.50;90.00;;;;;;4967887;28;20039;-79
2022/09/13 02:22:31;;;;;;;2.60;2.22;;;18.50;90.00;;;;;;4951672;28;20066;-79
2022/09/13 02:25:00;;;;;;;4.22;1.90;;;18.50;90.00;;;;;;4962696;28;20038;-79
2022/09/13 02:27:27;;;;;;;2.60;2.17;;;18.50;90.10;;;;;;4955615;28;20043;-80
2022/09/13 02:29:56;;;;;;;4.80;2.60;;;18.40;90.30;;;;;;4969277;28;20042;-79
2022/09/13 02:32:31;;;;;;;3.97;2.28;;;18.40;90.50;;;;;;4951049;28;20099;-79
2022/09/13 02:35:29;;;;;;;6.63;2.40;;;18.40;90.20;;;;;;4936768;28;20165;-80
2022/09/13 02:37:59;;;;;;;3.80;1.95;;;18.40;90.10;;;;;;4964892;28;20053;-80
2022/09/13 02:40:27;;;;;;;4.57;2.80;;;18.40;90.30;;;;;;4934870;28;20039;-79
2022/09/13 02:43:02;;;;;;;2.30;2.10;;;18.40;90.80;;;;;;4962979;28;20540;-79
2022/09/13 02:45:32;;;;;;;3.87;2.17;;;18.40;90.30;;;;;;4948837;28;20042;-79
2022/09/13 02:48:09;;;;;;;3.53;2.40;;;18.50;90.30;;;;;;4936076;28;20035;-79
2022/09/13 02:51:01;;;;;;;2.60;2.20;;;18.40;90.40;;;;;;4951015;28;20080;-79
2022/09/13 02:53:47;;;;;;;5.55;2.65;;;18.40;90.50;;;;;;4980028;28;20090;-79
2022/09/13 02:56:40;;;;;;;4.07;2.25;;;18.40;90.40;;;;;;4950523;28;20039;-79
2022/09/13 02:59:15;;;;;;;4.40;2.58;;;18.40;90.30;;;;;;4954907;28;20049;-79
2022/09/13 03:01:44;;;;;;;3.10;2.10;;;18.40;90.60;;;;;;4951410;28;20042;-79
2022/09/13 03:04:09;;;;;;;5.53;2.78;;;18.40;90.40;;;;;;4933001;28;20040;-79
2022/09/13 03:06:35;;;;;;;4.32;2.40;;;18.50;90.30;;;;;;4947341;28;20042;-79
2022/09/13 03:09:02;;;;;;;4.38;2.35;;;18.50;90.50;;;;;;4949205;28;20030;-79
2022/09/13 03:11:39;;;;;;;2.42;2.15;;;18.50;90.30;;;;;;4936318;28;20538;-79
2022/09/13 03:14:19;;;;;;;4.97;2.55;;;18.50;90.40;;;;;;4964363;28;20049;-79
2022/09/13 03:16:55;;;;;;;6.43;2.80;;;18.40;90.40;;;;;;4969821;28;20035;-80
2022/09/13 03:19:39;;;;;;;3.45;2.15;;;18.50;90.70;;;;;;4946827;28;20101;-79
2022/09/13 03:22:42;;;;;;;4.80;2.22;;;18.50;90.40;;;;;;4953485;28;20486;-79
2022/09/13 03:25:11;;;;;;;3.00;1.95;;;18.50;90.50;;;;;;4982369;28;20546;-79
2022/09/13 03:28:06;;;;;;;4.57;2.30;;;18.60;90.40;;;;;;4952222;28;20045;-79
2022/09/13 03:30:33;;;;;;;6.97;2.85;;;18.60;90.40;;;;;;4963949;28;20128;-79
2022/09/13 03:33:15;;;;;;;5.03;2.42;;;18.60;90.90;;;;;;4931457;28;20118;-79
2022/09/13 03:35:45;;;;;;;5.00;2.85;;;18.50;91.30;;;;;;4963689;28;20136;-80
2022/09/13 03:38:32;;;;;;;5.10;2.97;;;18.50;92.00;;;;;;4959720;28;20045;-78
2022/09/13 03:41:18;;;;;;;3.75;2.80;;;18.40;93.20;;;;;;4951212;28;20041;-79
2022/09/13 03:44:04;;;;;;;3.92;2.30;;;18.40;93.00;;;;;;4952819;28;20035;-78
2022/09/13 03:46:38;;;;;;;3.17;2.25;;;18.30;93.50;;;;;;4938453;28;20806;-79
2022/09/13 03:49:10;;;;;;;3.22;2.65;;;18.30;93.90;;;;;;4938058;28;20144;-79
2022/09/13 03:51:36;;;;;;;4.72;2.53;;;18.30;94.20;;;;;;4936838;28;20053;-79
2022/09/13 03:54:03;;;;;;;4.30;2.28;;;18.20;94.50;;;;;;4949799;28;20035;-79
2022/09/13 03:56:29;;;;;;;5.38;2.80;;;18.10;95.00;;;;;;4949976;28;20035;-79
2022/09/13 03:58:54;;;;;;;4.57;2.88;;;18.10;95.20;;;;;;4967397;28;20045;-79
2022/09/13 04:01:21;;;;;;;7.75;3.28;;;18.00;95.90;;;;;;4947945;28;20106;-79
2022/09/13 04:03:46;;;;;;;5.60;3.22;;;18.00;96.40;;;;;;4962526;28;20065;-80
2022/09/13 04:06:12;;;;;;;7.22;3.28;;;17.90;96.60;;;;;;4960134;28;20117;-79
2022/09/13 04:08:38;;;;;;;5.63;3.42;;;17.90;97.90;;;;;;4938012;28;20041;-78
2022/09/13 04:11:03;;;;;;;6.63;3.63;;;17.90;98.50;;;;;;4944151;28;20079;-79
2022/09/13 04:13:29;;;;;;;5.70;3.45;;;17.80;97.70;;;;;;4960449;28;20034;-79
2022/09/13 04:15:59;;;;;;;6.38;3.38;;;17.70;98.90;;;;;;4947179;28;20039;-79
2022/09/13 04:18:24;;;;;;;4.70;3.75;;;17.70;99.30;;;;;;4952998;28;20438;-79
2022/09/13 04:20:54;;;;;;;6.72;3.35;;;17.60;99.90;;;;;;4964328;28;20101;-79
2022/09/13 04:23:20;;;;;;;2.85;2.65;;;17.50;99.40;;;;;;4953566;28;20089;-80
2022/09/13 04:25:46;;;;;;;5.00;3.58;;;17.50;99.10;;;;;;4934367;28;20054;-79
2022/09/13 04:28:12;;;;;;;7.22;4.28;;;17.60;99.60;;;;;;4980402;28;20076;-79
2022/09/13 04:30:37;;;;;;;9.82;4.93;;;17.50;99.70;;;;;;4960549;28;20034;-79
2022/09/13 04:33:03;;;;;;;7.45;4.57;;;17.50;99.90;;;;;;4956701;28;20029;-79
2022/09/13 04:35:28;;;;;;;6.00;3.83;;;17.30;99.90;;;;;;4948587;28;20023;-79
2022/09/13 04:37:55;;;;;;;7.65;4.25;;;17.20;99.90;;;;;;4957636;28;20030;-79
2022/09/13 04:40:22;;;;;;;10.57;3.58;;;17.10;99.90;;;;;;4980985;28;20037;-79
2022/09/13 04:42:48;;;;;;;11.02;4.28;;;17.20;99.90;;;;;;4935090;28;20038;-79
2022/09/13 04:45:13;;;;;;;5.90;4.13;;;17.20;99.90;;;;;;4944871;28;20034;-79
2022/09/13 04:47:39;;;;;;;3.88;3.40;;;17.30;99.90;;;;;;4937163;28;20041;-79
2022/09/13 04:50:05;;;;;;;4.40;3.53;;;17.30;99.90;;;;;;4941187;28;20037;-79
2022/09/13 04:52:32;;;;;;;7.15;3.75;;;17.30;99.90;;;;;;4942929;28;20130;-79
2022/09/13 04:55:00;;;;;;;5.35;3.33;;;17.20;99.90;;;;;;4937791;28;20122;-79
2022/09/13 04:57:26;;;;;;;3.78;2.60;;;17.30;99.90;;;;;;4965066;28;20031;-79
2022/09/13 04:59:52;;;;;;;5.45;3.28;;;17.20;99.90;;;;;;4948946;28;20048;-79
2022/09/13 05:02:17;;;;;;;8.48;3.78;;;17.20;99.90;;;;;;4941576;28;20035;-79
2022/09/13 05:04:43;;;;;;;4.63;3.22;;;17.20;99.90;;;;;;4953607;28;20117;-79
2022/09/13 05:07:08;;;;;;;5.00;3.15;;;17.30;99.90;;;;;;4978384;28;20035;-79
2022/09/13 05:09:34;;;;;;;4.93;3.10;;;17.20;99.90;;;;;;4940886;28;20023;-79
2022/09/13 05:11:59;;;;;;;4.65;2.85;;;17.30;99.90;;;;;;4950479;28;20057;-79
2022/09/13 05:14:25;;;;;;;3.80;2.88;;;17.40;99.90;;;;;;4951227;28;20406;-79
2022/09/13 05:16:51;;;;;;;4.32;2.75;;;17.40;99.90;;;;;;4955965;28;20026;-79
2022/09/13 05:19:16;;;;;;;5.43;2.92;;;17.30;99.90;;;;;;4949220;28;20042;-79
2022/09/13 05:21:42;;;;;;;4.95;3.85;;;17.40;99.90;;;;;;4953660;28;20039;-80
2022/09/13 05:24:08;;;;;;;5.75;4.13;;;17.40;99.90;;;;;;4954555;28;20031;-79
2022/09/13 05:26:34;;;;;;;5.35;4.07;;;17.30;99.90;;;;;;4951800;28;20491;-79
2022/09/13 05:28:59;;;;;;;5.03;4.13;;;17.20;99.90;;;;;;4946975;28;20033;-79
2022/09/13 05:31:29;;;;;;;4.20;3.40;;;17.20;99.90;;;;;;4948217;28;20026;-79
2022/09/13 05:33:57;;;;;;;4.88;3.58;;;17.10;99.90;;;;;;4954031;28;20030;-80
2022/09/13 05:36:23;;;;;;;5.18;3.72;;;17.10;99.90;;;;;;4937867;28;20034;-79
2022/09/13 05:38:48;;;;;;;7.07;4.03;;;17.10;99.90;;;;;;4966496;28;20033;-79
2022/09/13 05:41:14;;;;;;;4.80;3.03;;;17.10;99.90;;;;;;4938349;28;20026;-79
2022/09/13 05:43:39;;;;;;;5.43;3.65;;;17.10;99.90;;;;;;4963353;28;20053;-80
2022/09/13 05:46:13;;;;;;;5.80;3.60;;;17.20;99.90;;;;;;4941129;28;20031;-79
2022/09/13 05:48:38;;;;;;;4.70;3.33;;;17.20;99.90;;;;;;4950232;28;20089;-79
2022/09/13 05:51:09;;;;;;;5.47;3.50;;;17.20;99.90;;;;;;4958697;28;20026;-79
2022/09/13 05:53:39;;;;;;;5.63;4.18;;;17.30;99.90;;;;;;4941958;28;20026;-79
2022/09/13 05:56:06;;;;;;;7.70;3.83;;;17.30;99.90;;;;;;4965398;28;20027;-78
2022/09/13 05:58:32;;;;;;;8.15;3.83;;;17.30;99.90;;;;;;4953746;28;20027;-79
2022/09/13 06:00:58;;;;;;;3.40;2.70;;;17.30;99.90;;;;;;4953817;28;20042;-78
2022/09/13 06:03:23;;;;;;;9.15;3.95;;;17.30;99.90;;;;;;4965997;28;20018;-79
2022/09/13 06:05:49;;;;;;;3.88;2.75;;;17.50;99.90;;;;;;4938738;28;20056;-79
2022/09/13 06:08:15;;;;;;;4.00;3.22;;;17.40;99.90;;;;;;4935452;28;20126;-79
2022/09/13 06:10:40;;;;;;;5.18;2.17;;;17.50;99.90;;;;;;4930472;28;20166;-79
2022/09/13 06:13:06;;;;;;;8.57;3.33;;;17.60;99.90;;;;;;4952169;28;20523;-79
2022/09/13 06:15:32;;;;;;;4.13;3.13;;;17.50;99.90;;;;;;4948512;28;20605;-79
2022/09/13 06:17:58;;;;;;;3.10;2.30;;;17.60;99.90;;;;;;4956600;28;20081;-78
2022/09/13 06:20:23;;;;;;;4.53;2.42;;;17.70;99.90;;;;;;4963698;28;20038;-79
2022/09/13 06:22:49;;;;;;;4.97;3.00;;;17.70;99.90;;;;;;4953388;28;20409;-79
2022/09/13 06:25:15;;;;;;;8.23;3.35;;;17.70;99.90;;;;;;4936657;28;20026;-80
2022/09/13 06:27:41;;;;;;;4.70;2.40;;;17.80;99.90;;;;;;4961700;28;20443;-78
2022/09/13 06:30:07;;;;;;;5.55;2.55;;;17.80;99.90;;;;;;4941244;28;20479;-78
2022/09/13 06:32:34;;;;;;;2.97;2.40;;;17.90;99.90;;;;;;4958242;28;20031;-79
2022/09/13 06:34:59;;;;;;;3.08;2.30;;;17.90;99.90;;;;;;4954940;28;20031;-78
2022/09/13 06:37:25;;;;;;;3.47;2.47;;;17.90;99.90;;;;;;4948380;28;20034;-78
2022/09/13 06:39:50;;;;;;;4.57;2.33;;;18.00;99.90;;;;;;4931818;28;20038;-78
2022/09/13 06:42:16;;;;;;;3.03;2.47;;;18.00;99.90;;;;;;4946398;28;20384;-78
2022/09/13 06:44:42;;;;;;;3.63;2.33;;;18.10;99.90;;;;;;4961997;28;20034;-79
2022/09/13 06:47:10;;;;;;;2.60;2.03;;;18.20;99.90;;;;;;4969023;28;20085;-79
2022/09/13 06:50:00;;;;;;;;;;;;;;;;;;;;;
2022/09/13 06:52:26;;;;;;;5.45;2.92;;;18.30;99.90;;;;;;4948221;28;20581;-79
2022/09/13 06:54:52;;;;;;;2.92;2.22;;;18.30;99.90;;;;;;4949930;28;20442;-79
2022/09/13 06:57:18;;;;;;;2.63;2.42;;;18.40;99.90;;;;;;4950687;28;20034;-79
2022/09/13 06:59:46;;;;;;;4.18;2.47;;;18.40;99.90;;;;;;4952702;28;20045;-79
2022/09/13 07:02:13;;;;;;;4.40;2.40;;;18.40;99.90;;;;;;4936944;28;20699;-80
2022/09/13 07:04:40;;;;;;;6.05;2.30;;;18.50;99.90;;;;;;4957879;28;20031;-80
2022/09/13 07:07:07;;;;;;;3.75;2.22;;;18.60;99.90;;;;;;4934800;28;21847;-80
2022/09/13 07:09:33;;;;;;;7.68;2.47;;;18.60;99.90;;;;;;4952358;28;20035;-79
2022/09/13 07:11:58;;;;;;;2.40;2.05;;;18.70;99.90;;;;;;4949717;28;20096;-80
2022/09/13 07:14:25;;;;;;;2.58;2.03;;;18.80;99.90;;;;;;4951459;28;20045;-79
2022/09/13 07:16:51;;;;;;;4.82;2.65;;;18.90;99.90;;;;;;4948560;28;20042;-79
2022/09/13 07:19:21;;;;;;;2.65;2.03;;;19.00;99.90;;;;;;4931993;28;20049;-80
2022/09/13 07:21:48;;;;;;;3.63;2.20;;;19.10;99.90;;;;;;4937915;28;20027;-80
2022/09/13 07:24:14;;;;;;;2.28;2.08;;;19.20;99.90;;;;;;4932052;28;20042;-80
2022/09/13 07:26:40;;;;;;;4.38;2.45;;;19.30;99.90;;;;;;4934057;28;20045;-80
2022/09/13 07:29:07;;;;;;;3.20;2.28;;;19.30;99.90;;;;;;4931703;28;20038;-80
2022/09/13 07:31:39;;;;;;;5.70;2.65;;;19.40;99.90;;;;;;4928329;28;20088;-80
2022/09/13 07:34:07;;;;;;;5.53;2.40;;;19.50;99.90;;;;;;4951626;28;20483;-80
2022/09/13 07:36:33;;;;;;;5.75;2.85;;;19.60;99.90;;;;;;4964189;28;20046;-80
2022/09/13 07:39:00;;;;;;;2.65;2.20;;;19.70;99.80;;;;;;4950120;28;20077;-80
2022/09/13 07:41:26;;;;;;;2.88;2.30;;;19.90;99.30;;;;;;4948626;28;20038;-80
2022/09/13 07:43:53;;;;;;;3.33;2.10;;;20.00;99.40;;;;;;4946308;28;20069;-80
2022/09/13 07:46:31;;;;;;;2.60;2.38;;;20.10;99.90;;;;;;4929410;28;20379;-80
2022/09/13 07:48:57;;;;;;;5.35;2.33;;;20.10;98.70;;;;;;4935207;28;20026;-80
2022/09/13 07:51:29;;;;;;;4.03;2.38;;;20.20;98.80;;;;;;4949312;28;20513;-80
2022/09/13 07:53:56;;;;;;;5.00;2.22;;;20.40;98.50;;;;;;4934821;28;20041;-80
2022/09/13 07:56:26;;;;;;;3.78;2.28;;;20.50;98.60;;;;;;4947985;28;20090;-80
2022/09/13 07:58:55;;;;;;;4.85;2.70;;;20.60;99.00;;;;;;4934904;28;20410;-80
2022/09/13 08:01:27;;;;;;;4.15;2.30;;;20.80;99.80;;;;;;4946245;28;20058;-80
2022/09/13 08:03:57;;;;;;;5.05;2.30;;;21.00;98.80;;;;;;4929716;28;20490;-80
2022/09/13 08:06:24;;;;;;;3.15;2.40;;;21.00;98.20;;;;;;4942571;28;20097;-81
2022/09/13 08:08:50;;;;;;;3.75;2.17;;;21.10;98.20;;;;;;4949681;28;20054;-80
2022/09/13 08:11:20;;;;;;;3.53;2.58;;;21.30;99.80;;;;;;4974206;28;20041;-80
2022/09/13 08:13:46;;;;;;;3.72;2.00;;;21.60;99.90;;;;;;4933858;28;20064;-80
2022/09/13 08:16:12;;;;;;;5.65;2.53;;;21.70;99.90;;;;;;4945790;28;20502;-80
2022/09/13 08:18:44;;;;;;;4.60;2.20;;;21.80;99.80;;;;;;4952061;28;20075;-80
2022/09/13 08:21:10;;;;;;;3.55;2.38;;;21.90;99.40;;;;;;4935744;28;20070;-80
2022/09/13 08:23:36;;;;;;;3.47;2.20;;;22.00;98.10;;;;;;4935585;28;20031;-80
2022/09/13 08:26:02;;;;;;;2.70;2.13;;;22.10;99.10;;;;;;4965078;28;20044;-80
2022/09/13 08:28:30;;;;;;;11.85;2.75;;;22.20;98.80;;;;;;4950226;28;20114;-80
2022/09/13 08:30:56;;;;;;;6.05;2.30;;;22.20;99.10;;;;;;4935248;28;20541;-80
2022/09/13 08:33:21;;;;;;;3.72;2.40;;;22.40;99.80;;;;;;4935534;28;20035;-80
2022/09/13 08:35:51;;;;;;;4.60;2.80;;;22.40;99.00;;;;;;4933959;28;20020;-81
2022/09/13 08:38:17;;;;;;;5.53;2.55;;;22.50;99.00;;;;;;4947742;28;20122;-81
2022/09/13 08:40:51;;;;;;;5.78;3.20;;;22.60;97.90;;;;;;4932945;28;20571;-81
2022/09/13 08:43:25;;;;;;;5.43;2.40;;;22.60;97.90;;;;;;4934644;28;20034;-81
2022/09/13 08:46:04;;;;;;;3.95;2.58;;;22.80;99.20;;;;;;4948644;28;20035;-81
2022/09/13 08:48:33;;;;;;;6.22;3.35;;;22.90;99.70;;;;;;4928850;28;20394;-81
2022/09/13 08:51:02;;;;;;;5.28;2.83;;;23.10;97.30;;;;;;4940306;28;20030;-81
2022/09/13 08:53:28;;;;;;;4.43;2.95;;;23.20;96.30;;;;;;4949818;28;20049;-81
2022/09/13 08:56:21;;;;;;;4.57;3.20;;;23.20;98.20;;;;;;4933691;28;20777;-81
2022/09/13 08:59:08;;;;;;;3.05;2.47;;;23.40;95.90;;;;;;4982496;28;20062;-81
2022/09/13 09:01:40;;;;;;;5.25;2.88;;;23.40;95.60;;;;;;4967001;28;20395;-82
2022/09/13 09:04:29;;;;;;;4.22;2.72;;;23.50;96.90;;;;;;4953663;28;20089;-81
2022/09/13 09:07:16;;;;;;;4.53;2.92;;;23.60;96.00;;;;;;4952950;28;20426;-81
2022/09/13 09:09:47;;;;;;;7.55;3.20;;;23.80;96.20;;;;;;4965155;28;20553;-81
2022/09/13 09:12:21;;;;;;;5.15;3.15;;;24.00;95.40;;;;;;4966301;28;20039;-82
2022/09/13 09:15:17;;;;;;;6.13;2.42;;;24.10;95.30;;;;;;4962731;28;20089;-82
2022/09/13 09:17:52;;;;;;;4.28;2.58;;;24.30;94.50;;;;;;4959506;28;20486;-82
2022/09/13 09:20:35;;;;;;;5.85;2.78;;;24.30;94.70;;;;;;4933648;28;20054;-82
2022/09/13 09:23:04;;;;;;;3.35;2.15;;;24.50;94.80;;;;;;4955393;28;20030;-82
2022/09/13 09:25:32;;;;;;;5.20;2.53;;;24.70;94.40;;;;;;4940144;28;20034;-82
2022/09/13 09:27:58;;;;;;;3.55;3.08;;;24.50;95.60;;;;;;4954794;28;20406;-82
2022/09/13 09:30:37;;;;;;;4.25;2.80;;;24.70;96.50;;;;;;4963159;28;20026;-83
2022/09/13 09:33:12;;;;;;;6.13;3.33;;;24.90;94.40;;;;;;4941201;28;20050;-82
2022/09/13 09:35:56;;;;;;;6.68;3.03;;;25.10;93.40;;;;;;4936602;28;20487;-82
2022/09/13 09:38:42;;;;;;;6.80;3.00;;;25.40;93.60;;;;;;4980307;28;20035;-82
2022/09/13 09:41:28;;;;;;;3.97;3.05;;;25.30;93.80;;;;;;4947018;28;20048;-82
2022/09/13 09:44:23;;;;;;;4.22;2.40;;;25.20;93.70;;;;;;4939158;28;20040;-83
2022/09/13 09:46:51;;;;;;;5.75;2.75;;;25.50;93.70;;;;;;4949229;28;20395;-83
2022/09/13 09:52:49;;;;;;;5.15;2.83;;;25.50;94.20;;;;;;4983332;28;20066;-83
2022/09/13 09:55:47;;;;;;;5.82;2.63;;;25.70;94.00;;;;;;4973105;28;20479;-83
2022/09/13 09:58:16;;;;;;;3.83;3.13;;;25.70;94.20;;;;;;4954432;28;20541;-83
2022/09/13 10:00:52;;;;;;;5.15;3.25;;;25.80;94.20;;;;;;4947078;28;20042;-84
2022/09/13 10:03:19;;;;;;;7.40;3.50;;;26.00;93.20;;;;;;4950383;28;20510;-84
2022/09/13 10:05:45;;;;;;;10.60;4.13;;;26.00;94.70;;;;;;4938950;28;20486;-83
2022/09/13 10:08:32;;;;;;;3.67;2.78;;;25.90;95.20;;;;;;4933267;28;20041;-84
2022/09/13 10:10:59;;;;;;;5.05;3.58;;;25.90;94.40;;;;;;4940397;28;20030;-84
2022/09/13 10:13:25;;;;;;;4.00;2.50;;;26.00;94.20;;;;;;4954621;28;20045;-84
2022/09/13 10:16:02;;;;;;;8.77;3.42;;;26.10;94.10;;;;;;4934101;28;20510;-84
2022/09/13 10:18:28;;;;;;;6.15;3.00;;;26.30;94.30;;;;;;4954788;28;20026;-84
2022/09/13 10:21:06;;;;;;;4.20;3.30;;;26.60;93.20;;;;;;4934276;28;20101;-84
2022/09/13 10:26:31;;;;;;;8.45;5.03;;;26.40;94.00;;;;;;4952075;28;20042;-84
2022/09/13 10:29:06;;;;;;;7.68;4.95;;;26.50;94.20;;;;;;4953486;28;20026;-84
2022/09/13 10:31:52;;;;;;;11.82;4.30;;;26.50;94.00;;;;;;4934663;28;20038;-84
2022/09/13 10:34:31;;;;;;;;;;;26.70;94.10;;;;;;4960774;28;20045;-83
2022/09/13 10:37:25;;;;;;;8.38;4.07;;;26.80;94.00;;;;;;4922897;28;20344;-83
2022/09/13 10:40:00;;;;;;;6.57;3.85;;;26.80;94.10;;;;;;4955473;28;20097;-83
2022/09/13 10:42:27;;;;;;;3.75;2.63;;;26.90;94.00;;;;;;4952421;28;20629;-83
2022/09/13 10:44:54;;;;;;;6.45;3.65;;;27.00;94.10;;;;;;4944304;28;20505;-82
2022/09/13 10:47:44;;;;;;;10.88;4.20;;;27.20;93.60;;;;;;4963832;28;20748;-84
2022/09/13 10:50:23;;;;;;;4.15;3.20;;;27.30;93.20;;;;;;4951118;28;20053;-83
2022/09/13 10:52:52;;;;;;;7.45;3.95;;;27.50;93.00;;;;;;4966380;28;20042;-83
2022/09/13 10:55:17;;;;;;;5.93;3.45;;;27.50;92.70;;;;;;4929272;28;20174;-83
2022/09/13 10:57:53;;;;;;;9.30;4.07;;;27.50;92.60;;;;;;4966214;28;20109;-83
2022/09/13 11:00:29;;;;;;;;;;;27.50;92.40;;;;;;4946970;28;20041;-83
2022/09/13 11:03:10;;;;;;;3.15;2.50;;;27.80;92.50;;;;;;4968076;28;19924;-83
2022/09/13 11:06:03;;;;;;;7.75;3.45;;;27.80;92.00;;;;;;4954746;28;20055;-82
2022/09/13 11:08:49;;;;;;;10.32;3.25;;;27.70;92.50;;;;;;4979040;28;20041;-82
2022/09/13 11:11:35;;;;;;;7.85;5.10;;;27.80;92.50;;;;;;4954344;28;20475;-82
2022/09/13 11:14:11;;;;;;;6.82;4.07;;;27.80;91.90;;;;;;4934510;28;20537;-82
2022/09/13 11:16:48;;;;;;;4.40;2.75;;;27.80;92.00;;;;;;4950831;28;20026;-82
2022/09/13 11:19:41;;;;;;;5.80;2.95;;;28.20;91.30;;;;;;4967048;28;20038;-83
2022/09/13 11:22:32;;;;;;;6.10;2.88;;;28.50;91.00;;;;;;4969009;28;20034;-82
2022/09/13 11:25:16;;;;;;;5.95;3.10;;;28.60;90.20;;;;;;4962503;28;20117;-81
2022/09/13 11:28:12;;;;;;;4.10;3.20;;;29.00;89.50;;;;;;4968245;28;20057;-80
2022/09/13 11:31:11;;;;;;;5.15;2.60;;;29.20;88.40;;;;;;4944474;28;20035;-80
2022/09/13 11:33:51;;;;;;;5.07;3.10;;;29.60;85.40;;;;;;4943652;28;20739;-80
2022/09/13 11:36:41;;;;;;;6.85;3.00;;;29.70;84.50;;;;;;4979184;28;20026;-80
2022/09/13 11:39:21;;;;;;;6.20;2.65;;;29.50;86.10;;;;;;4963146;28;20031;-80
2022/09/13 11:42:08;;;;;;;5.40;3.67;;;29.70;85.20;;;;;;4963317;28;20113;-79
2022/09/13 11:44:40;;;;;;;9.10;3.63;;;29.20;84.60;;;;;;4951004;28;20368;-80
2022/09/13 11:47:50;;;;;;;7.03;2.92;;;28.70;86.90;;;;;;4973202;28;20348;-79
2022/09/13 11:50:32;;;;;;;12.85;4.75;;;29.90;82.60;;;;;;4974417;28;20561;-78
2022/09/13 11:53:33;;;;;;;6.47;3.40;;;29.10;84.30;;;;;;4939850;28;20113;-80
2022/09/13 11:56:01;;;;;;;4.97;3.67;;;28.70;86.80;;;;;;4962798;28;20498;-79
2022/09/13 11:59:02;;;;;;;4.88;2.75;;;28.80;88.30;;;;;;4949965;28;20039;-79
2022/09/13 12:01:41;;;;;;;6.22;2.63;;;29.00;87.30;;;;;;4943847;28;20470;-78
2022/09/13 12:04:12;;;;;;;6.20;2.80;;;29.10;88.00;;;;;;4945106;28;20029;-78
2022/09/13 12:06:39;;;;;;;6.63;3.08;;;29.90;84.50;;;;;;4979415;28;20027;-79
2022/09/13 12:09:20;;;;;;;7.53;3.28;;;30.60;81.40;;;;;;4947801;28;20058;-78
2022/09/13 12:11:50;;;;;;;5.20;2.60;;;30.30;82.40;;;;;;4952970;28;20034;-78
2022/09/13 12:14:18;;;;;;;6.15;2.60;;;31.00;79.50;;;;;;4938399;28;20034;-78
2022/09/13 12:16:48;;;;;;;8.30;3.72;;;30.70;81.40;;;;;;4938505;28;20479;-77
2022/09/13 12:19:20;;;;;;;4.10;3.45;;;30.40;81.20;;;;;;4950329;28;20046;-77
2022/09/13 12:21:46;;;;;;;6.18;3.83;;;30.20;82.20;;;;;;4945021;28;20098;-77
2022/09/13 12:24:34;;;;;;;5.72;2.65;;;30.10;84.30;;;;;;4948364;28;20026;-77
2022/09/13 12:27:27;;;;;;;5.15;3.13;;;30.00;85.10;;;;;;4966590;28;20030;-78
2022/09/13 12:30:02;;;;;;;5.50;3.15;;;30.00;83.50;;;;;;4951555;28;20030;-77
2022/09/13 12:32:28;;;;;;;5.07;2.83;;;30.10;83.70;;;;;;4952146;28;20030;-79
2022/09/13 12:35:02;;;;;;;4.10;2.72;;;30.40;83.60;;;;;;4960368;28;20038;-79
2022/09/13 12:37:52;;;;;;;9.70;4.07;;;30.50;83.60;;;;;;4953867;28;20145;-78
2022/09/13 12:40:55;;;;;;;3.33;1.98;;;30.90;82.10;;;;;;4982218;28;20114;-76
2022/09/13 12:43:33;;;;;;;8.63;4.10;;;31.60;78.30;;;;;;4979729;28;20039;-77
2022/09/13 12:46:37;;;;;;;4.55;2.72;;;31.40;77.30;;;;;;4953838;28;20030;-78
2022/09/13 12:49:32;;;;;;;5.47;3.17;;;31.80;78.40;;;;;;4950657;28;20033;-76
2022/09/13 12:52:00;;;;;;;6.53;5.00;;;31.60;78.80;;;;;;4936449;28;20036;-77
2022/09/13 12:55:03;;;;;;;5.82;2.92;;;31.40;78.40;;;;;;4981277;28;20430;-76
2022/09/13 12:57:29;;;;;;;7.07;3.05;;;31.40;79.40;;;;;;4982524;28;20030;-77
2022/09/13 13:00:11;;;;;;;10.10;4.57;;;31.40;78.70;;;;;;4982842;28;20047;-78
2022/09/13 13:02:49;;;;;;;9.23;5.47;;;31.50;77.60;;;;;;4983012;28;20081;-78
2022/09/13 13:05:25;;;;;;;6.57;4.90;;;31.40;77.60;;;;;;4968347;28;20039;-77
2022/09/13 13:07:59;;;;;;;6.70;4.32;;;31.30;79.20;;;;;;4961948;28;20041;-78
2022/09/13 13:10:31;;;;;;;11.38;5.72;;;31.30;79.40;;;;;;4948940;28;20035;-77
2022/09/13 13:13:18;;;;;;;11.20;7.15;;;31.30;77.80;;;;;;4957287;28;20486;-77
2022/09/13 13:15:44;;;;;;;10.07;6.60;;;31.40;77.10;;;;;;4938929;28;20558;-76
2022/09/13 13:18:29;;;;;;;5.95;4.30;;;31.30;75.60;;;;;;4965645;28;20035;-78
2022/09/13 13:20:55;;;;;;;12.75;5.80;;;31.20;78.10;;;;;;4969601;28;20470;-77
2022/09/13 13:23:26;;;;;;;10.00;7.05;;;31.30;77.80;;;;;;4976653;28;20022;-76